Terminal Aerodrome Forecast
Issued by NWS

Home | Current Version | Previous Version | Graphics & Text | Print | Product List | Glossary On
Versions: 1 2 3 4 5 6 7 8 9 10 11 12 13 14 15 16 17 18 19 20
000
FTUS43 KICT 161740
TAFHUT
TAF
KHUT 161740Z 1618/1718 15009KT P6SM VCTS SCT040CB BKN080
     FM162000 11009KT P6SM VCTS BKN035CB BKN300
     FM170900 14007KT 5SM BR OVC025=

USA.gov is the U.S. government's official web portal to all federal, state and local government web resources and services.